Time;durP1;ratioP1;P1;durP2;ratioP2;P2;SDS_P1;SDS_P2;PMS_P1;PMS_P2;Temp;Humidity;BMP_temperature;BMP_pressure;BME280_temperature;BME280_humidity;BME280_pressure;Samples;Min_cycle;Max_cycle;Signal;HPM_P1;HPM_P2
2021/04/09 00:02:18;;;;;;;;;;;;;;;17.98;26.73;100227.69;4414882;32;19954;-59
2021/04/09 00:04:44;;;;;;;;;;;;;;;18.00;26.80;100240.00;4413922;32;19961;-59
2021/04/09 00:07:10;;;;;;;;;;;;;;;18.01;26.73;100231.25;4413727;32;20343;-59
2021/04/09 00:09:36;;;;;;;;;;;;;;;18.00;26.73;100234.72;4415329;32;19977;-59
2021/04/09 00:12:02;;;;;;;;;;;;;;;17.98;26.99;100230.31;4414723;32;19989;-58
2021/04/09 00:14:27;;;;;;;;;;;;;;;17.94;26.83;100227.59;4414030;32;20291;-59
2021/04/09 00:16:54;;;;;;;;;;;;;;;17.92;26.86;100232.81;4414272;32;20477;-58
2021/04/09 00:19:19;;;;;;;;;;;;;;;17.92;26.84;100230.19;4414017;32;19973;-59
2021/04/09 00:21:45;;;;;;;;;;;;;;;17.92;26.78;100227.53;4415123;32;19958;-59
2021/04/09 00:24:11;;;;;;;;;;;;;;;17.94;26.82;100223.19;4414214;32;19954;-59
2021/04/09 00:26:37;;;;;;;;;;;;;;;18.04;26.77;100215.50;4414295;32;19958;-58
2021/04/09 00:29:03;;;;;;;;;;;;;;;17.96;26.78;100213.59;4414501;32;20001;-59
2021/04/09 00:31:29;;;;;;;;;;;;;;;17.89;26.94;100211.69;4414803;32;19999;-59
2021/04/09 00:33:55;;;;;;;;;;;;;;;17.97;26.70;100204.84;4414583;32;19992;-58
2021/04/09 00:36:21;;;;;;;;;;;;;;;17.92;26.77;100201.19;4410988;32;19976;-58
2021/04/09 00:38:46;;;;;;;;;;;;;;;17.94;26.77;100195.97;4414705;32;20035;-58
2021/04/09 00:41:12;;;;;;;;;;;;;;;17.98;26.67;100195.16;4414213;32;20248;-60
2021/04/09 00:43:39;;;;;;;;;;;;;;;17.90;26.72;100187.13;4414197;32;19955;-58
2021/04/09 00:46:05;;;;;;;;;;;;;;;17.89;26.87;100192.34;4414004;32;20334;-59
2021/04/09 00:48:31;;;;;;;;;;;;;;;17.87;26.79;100191.44;4414120;32;19996;-58
2021/04/09 00:50:56;;;;;;;;;;;;;;;17.83;26.81;100183.47;4414665;32;20003;-59
2021/04/09 00:53:22;;;;;;;;;;;;;;;17.88;26.75;100194.09;4414391;32;20051;-59
2021/04/09 00:55:48;;;;;;;;;;;;;;;17.95;26.73;100189.84;4411387;32;20353;-59
2021/04/09 00:58:14;;;;;;;;;;;;;;;17.89;26.74;100190.63;4413053;32;19954;-58
2021/04/09 01:00:40;;;;;;;;;;;;;;;17.85;26.80;100183.53;4415731;32;19997;-59
2021/04/09 01:03:06;;;;;;;;;;;;;;;17.87;26.78;100176.53;4416760;32;19954;-59
2021/04/09 01:05:32;;;;;;;;;;;;;;;17.85;26.81;100172.97;4416742;32;19958;-59
2021/04/09 01:08:01;;;;;;;;;;;;;;;17.85;26.83;100170.34;4416423;32;20363;-59
2021/04/09 01:10:26;;;;;;;;;;;;;;;17.90;26.68;100168.69;4416721;32;19964;-59
2021/04/09 01:12:52;;;;;;;;;;;;;;;17.81;26.85;100163.22;4417349;32;19989;-59
2021/04/09 01:15:18;;;;;;;;;;;;;;;17.81;26.86;100160.59;4415901;32;19998;-59
2021/04/09 01:17:44;;;;;;;;;;;;;;;17.88;26.72;100161.59;4415775;32;19966;-59
2021/04/09 01:20:10;;;;;;;;;;;;;;;17.85;26.88;100165.06;4416475;32;19953;-59
2021/04/09 01:22:36;;;;;;;;;;;;;;;17.91;26.71;100167.81;4417382;32;20898;-58
2021/04/09 01:25:02;;;;;;;;;;;;;;;17.80;26.83;100159.72;4416550;32;20002;-59
2021/04/09 01:27:28;;;;;;;;;;;;;;;17.77;26.94;100166.66;4415202;32;20235;-59
2021/04/09 01:29:54;;;;;;;;;;;;;;;17.78;26.86;100157.91;4416582;32;19976;-59
2021/04/09 01:32:19;;;;;;;;;;;;;;;17.76;27.04;100157.00;4416771;32;20099;-60
2021/04/09 01:34:45;;;;;;;;;;;;;;;17.76;26.86;100159.63;4416703;32;19958;-59
2021/04/09 01:37:11;;;;;;;;;;;;;;;17.72;26.87;100160.41;4416463;32;19972;-59
2021/04/09 01:39:37;;;;;;;;;;;;;;;17.72;26.92;100163.03;4416695;32;19995;-59
2021/04/09 01:42:03;;;;;;;;;;;;;;;17.63;27.03;100162.00;4416295;32;19972;-58
2021/04/09 01:44:29;;;;;;;;;;;;;;;17.75;26.86;100152.59;4416283;32;20002;-59
2021/04/09 01:46:55;;;;;;;;;;;;;;;17.78;26.81;100157.91;4416542;32;19957;-58
2021/04/09 01:49:21;;;;;;;;;;;;;;;17.75;26.83;100149.94;4415917;32;19963;-58
2021/04/09 01:51:46;;;;;;;;;;;;;;;17.75;26.86;100161.34;4415293;32;19977;-59
2021/04/09 01:54:12;;;;;;;;;;;;;;;17.75;26.88;100163.13;4416737;32;19977;-59
2021/04/09 01:56:38;;;;;;;;;;;;;;;17.66;26.98;100154.16;4415607;32;20737;-58
2021/04/09 01:59:04;;;;;;;;;;;;;;;17.69;26.92;100162.13;4415974;32;19958;-59
2021/04/09 02:01:30;;;;;;;;;;;;;;;17.76;26.84;100162.25;4416052;32;20441;-60
2021/04/09 02:03:56;;;;;;;;;;;;;;;17.67;26.87;100153.31;4417162;32;20008;-59
2021/04/09 02:06:22;;;;;;;;;;;;;;;17.66;26.93;100146.25;4415840;32;20005;-59
2021/04/09 02:08:48;;;;;;;;;;;;;;;17.67;26.85;100153.31;4416111;32;19985;-59
2021/04/09 02:11:14;;;;;;;;;;;;;;;17.64;26.92;100147.97;4415099;32;19965;-59
2021/04/09 02:13:39;;;;;;;;;;;;;;;17.63;26.91;100140.94;4412938;32;19968;-59
2021/04/09 02:16:05;;;;;;;;;;;;;;;17.63;26.95;100140.94;4415169;32;19980;-57
2021/04/09 02:18:31;;;;;;;;;;;;;;;17.66;26.84;100135.72;4416301;32;19984;-58
2021/04/09 02:20:57;;;;;;;;;;;;;;;17.63;26.96;100134.78;4416208;32;20364;-59
2021/04/09 02:23:23;;;;;;;;;;;;;;;17.57;27.00;100132.91;4411141;32;20038;-59
2021/04/09 02:25:49;;;;;;;;;;;;;;;17.64;26.91;100131.28;4415934;32;19995;-59
2021/04/09 02:28:15;;;;;;;;;;;;;;;17.52;27.05;100137.22;4415043;32;20013;-59
2021/04/09 02:30:41;;;;;;;;;;;;;;;17.52;27.05;100131.94;4416078;32;20377;-59
2021/04/09 02:33:06;;;;;;;;;;;;;;;17.59;26.96;100133.81;4415693;32;20721;-59
2021/04/09 02:35:32;;;;;;;;;;;;;;;17.48;27.17;100135.37;4415260;32;19958;-58
2021/04/09 02:37:58;;;;;;;;;;;;;;;17.55;26.95;100132.00;4415977;32;20293;-58
2021/04/09 02:40:24;;;;;;;;;;;;;;;17.54;26.95;100131.13;4415802;32;19966;-59
2021/04/09 02:42:50;;;;;;;;;;;;;;;17.59;26.89;100119.78;4415830;32;20665;-59
2021/04/09 02:45:16;;;;;;;;;;;;;;;17.59;26.93;100115.37;4414896;32;20009;-58
2021/04/09 02:47:42;;;;;;;;;;;;;;;17.52;27.00;100121.41;4415908;32;20049;-58
2021/04/09 02:50:08;;;;;;;;;;;;;;;17.49;26.99;100116.09;4414487;32;19997;-56
2021/04/09 02:52:34;;;;;;;;;;;;;;;17.44;27.09;100110.72;4415481;32;20009;-58
2021/04/09 02:55:00;;;;;;;;;;;;;;;17.48;27.03;100103.78;4415969;32;20014;-59
2021/04/09 02:57:25;;;;;;;;;;;;;;;17.47;27.05;100100.25;4414028;32;20017;-59
2021/04/09 02:59:51;;;;;;;;;;;;;;;17.41;27.16;100113.31;4415645;32;19988;-59
2021/04/09 03:02:17;;;;;;;;;;;;;;;17.35;27.31;100110.53;4415069;32;20013;-58
2021/04/09 03:04:43;;;;;;;;;;;;;;;17.36;27.21;100107.94;4414946;32;19973;-59
2021/04/09 03:07:09;;;;;;;;;;;;;;;17.42;27.11;100110.69;4414888;32;19962;-59
2021/04/09 03:09:35;;;;;;;;;;;;;;;17.40;27.09;100107.12;4415839;32;19946;-59
2021/04/09 03:12:01;;;;;;;;;;;;;;;17.34;27.17;100107.00;4415265;32;20595;-59
2021/04/09 03:14:27;;;;;;;;;;;;;;;17.26;27.38;100106.84;4412954;32;19977;-59
2021/04/09 03:16:53;;;;;;;;;;;;;;;17.31;27.26;100100.81;4414278;32;20018;-59
2021/04/09 03:19:19;;;;;;;;;;;;;;;17.33;27.18;100099.97;4414106;32;19962;-59
2021/04/09 03:21:45;;;;;;;;;;;;;;;17.24;27.38;100099.78;4414620;32;19958;-59
2021/04/09 03:24:10;;;;;;;;;;;;;;;17.27;27.27;100098.09;4414523;32;19997;-59
2021/04/09 03:26:36;;;;;;;;;;;;;;;17.26;27.27;100100.69;4415007;32;19980;-59
2021/04/09 03:29:02;;;;;;;;;;;;;;;17.42;27.01;100086.12;4412966;32;20012;-58
2021/04/09 03:31:28;;;;;;;;;;;;;;;17.44;27.11;100091.41;4414520;32;20325;-58
2021/04/09 03:33:54;;;;;;;;;;;;;;;17.33;27.19;100089.44;4415238;32;19978;-59
2021/04/09 03:36:20;;;;;;;;;;;;;;;17.20;27.34;100087.41;4414123;32;20824;-59
2021/04/09 03:38:46;;;;;;;;;;;;;;;17.29;27.22;100087.59;4414920;32;19958;-58
2021/04/09 03:41:12;;;;;;;;;;;;;;;17.36;27.10;100081.63;4414278;32;19969;-59
2021/04/09 03:43:37;;;;;;;;;;;;;;;17.38;27.10;100082.53;4414409;32;19969;-59
2021/04/09 03:46:03;;;;;;;;;;;;;;;17.36;27.12;100084.25;4414148;32;20158;-59
2021/04/09 03:48:29;;;;;;;;;;;;;;;17.41;27.01;100077.31;4415031;32;20311;-58
2021/04/09 03:50:55;;;;;;;;;;;;;;;17.33;27.11;100081.53;4414318;32;19988;-59
2021/04/09 03:53:21;;;;;;;;;;;;;;;17.34;27.12;100079.81;4412610;32;19958;-59
2021/04/09 03:55:47;;;;;;;;;;;;;;;17.31;27.17;100070.09;4414817;32;20011;-59
2021/04/09 03:58:13;;;;;;;;;;;;;;;17.29;27.18;100077.06;4412636;32;20005;-59
2021/04/09 04:00:39;;;;;;;;;;;;;;;17.36;27.05;100068.47;4414361;32;19997;-59
2021/04/09 04:03:04;;;;;;;;;;;;;;;17.27;27.27;100063.87;4415034;32;20588;-59
2021/04/09 04:05:30;;;;;;;;;;;;;;;17.27;27.25;100065.62;4413148;32;19961;-59
2021/04/09 04:07:56;;;;;;;;;;;;;;;17.28;27.16;100065.69;4415192;32;19985;-59
2021/04/09 04:10:22;;;;;;;;;;;;;;;17.28;27.26;100070.03;4415047;32;20013;-58
2021/04/09 04:12:48;;;;;;;;;;;;;;;17.32;27.21;100077.13;4415529;32;19965;-57
2021/04/09 04:15:14;;;;;;;;;;;;;;;17.37;27.03;100070.22;4413259;32;19954;-58
2021/04/09 04:17:40;;;;;;;;;;;;;;;17.32;27.18;100063.97;4412599;32;20598;-58
2021/04/09 04:20:06;;;;;;;;;;;;;;;17.31;27.09;100066.59;4415266;32;19962;-59
2021/04/09 04:22:32;;;;;;;;;;;;;;;17.29;27.10;100063.91;4415923;32;19954;-59
2021/04/09 04:24:57;;;;;;;;;;;;;;;17.25;27.18;100075.25;4414601;32;19949;-59
2021/04/09 04:27:23;;;;;;;;;;;;;;;17.22;27.30;100070.78;4414018;32;20082;-59
2021/04/09 04:29:49;;;;;;;;;;;;;;;17.19;27.28;100073.38;4415490;32;20386;-60
2021/04/09 04:32:15;;;;;;;;;;;;;;;17.25;27.23;100069.97;4414637;32;19961;-59
2021/04/09 04:34:41;;;;;;;;;;;;;;;17.25;27.24;100065.59;4416248;32;19984;-59
2021/04/09 04:37:07;;;;;;;;;;;;;;;17.25;27.23;100062.09;4417642;32;20539;-59
2021/04/09 04:39:33;;;;;;;;;;;;;;;17.27;27.20;100061.25;4416569;32;19992;-60
2021/04/09 04:42:00;;;;;;;;;;;;;;;17.19;27.31;100048.78;4418873;32;19995;-59
2021/04/09 04:44:25;;;;;;;;;;;;;;;17.20;27.28;100050.56;4417087;32;19958;-59
2021/04/09 04:46:51;;;;;;;;;;;;;;;17.13;27.42;100050.44;4417305;32;19954;-60
2021/04/09 04:49:17;;;;;;;;;;;;;;;17.11;27.38;100044.28;4417594;32;19980;-59
2021/04/09 04:51:43;;;;;;;;;;;;;;;17.08;27.50;100051.22;4417594;32;19990;-59
2021/04/09 04:54:09;;;;;;;;;;;;;;;17.04;27.57;100042.38;4417778;32;19955;-59
2021/04/09 04:56:35;;;;;;;;;;;;;;;17.10;27.47;100039.88;4416825;32;20753;-56
2021/04/09 04:59:01;;;;;;;;;;;;;;;17.18;27.30;100037.41;4415784;32;19958;-59
2021/04/09 05:01:26;;;;;;;;;;;;;;;17.13;27.40;100039.94;4415591;32;20364;-59
2021/04/09 05:03:52;;;;;;;;;;;;;;;17.13;27.37;100045.19;4417530;32;20004;-59
2021/04/09 05:06:18;;;;;;;;;;;;;;;17.07;27.46;100050.31;4415695;32;19987;-59
2021/04/09 05:08:44;;;;;;;;;;;;;;;17.10;27.40;100054.75;4416508;32;19973;-59
2021/04/09 05:11:10;;;;;;;;;;;;;;;17.11;27.43;100052.16;4417286;32;19958;-59
2021/04/09 05:13:36;;;;;;;;;;;;;;;17.09;27.44;100045.09;4417240;32;20072;-59
2021/04/09 05:16:02;;;;;;;;;;;;;;;17.04;27.54;100045.00;4414171;32;20003;-59
2021/04/09 05:18:28;;;;;;;;;;;;;;;17.05;27.53;100052.03;4409310;32;20412;-53
2021/04/09 05:20:54;;;;;;;;;;;;;;;16.99;27.75;100060.69;4415934;32;19977;-53
2021/04/09 05:23:20;;;;;;;;;;;;;;;16.88;27.92;100053.38;4415287;32;19962;-53
2021/04/09 05:25:46;;;;;;;;;;;;;;;17.11;27.36;100052.16;4414707;32;19961;-53
2021/04/09 05:28:12;;;;;;;;;;;;;;;17.22;27.16;100055.00;4414621;32;20017;-54
2021/04/09 05:30:37;;;;;;;;;;;;;;;17.29;26.96;100053.38;4414144;32;20027;-55
2021/04/09 05:33:03;;;;;;;;;;;;;;;17.23;27.04;100055.91;4413379;32;20046;-53
2021/04/09 05:35:30;;;;;;;;;;;;;;;17.11;27.26;100052.16;4415381;32;20016;-54
2021/04/09 05:37:55;;;;;;;;;;;;;;;17.03;27.55;100055.47;4415418;32;19957;-55
2021/04/09 05:40:21;;;;;;;;;;;;;;;17.21;27.31;100058.50;4414763;32;19983;-54
2021/04/09 05:42:47;;;;;;;;;;;;;;;17.22;27.19;100054.09;4415359;32;19951;-53
2021/04/09 05:45:13;;;;;;;;;;;;;;;17.21;27.25;100047.06;4413449;32;20355;-51
2021/04/09 05:47:39;;;;;;;;;;;;;;;17.31;27.14;100049.03;4411157;32;19995;-55
2021/04/09 05:50:05;;;;;;;;;;;;;;;17.28;27.22;100047.25;4413939;32;20009;-54
2021/04/09 05:52:31;;;;;;;;;;;;;;;17.31;27.23;100051.66;4414767;32;20327;-53
2021/04/09 05:54:57;;;;;;;;;;;;;;;17.25;27.55;100054.19;4416328;32;19966;-53
2021/04/09 05:57:22;;;;;;;;;;;;;;;17.34;27.22;100054.34;4414014;32;20036;-55
2021/04/09 05:59:48;;;;;;;;;;;;;;;17.34;27.35;100049.09;4416036;32;19968;-55
2021/04/09 06:02:14;;;;;;;;;;;;;;;17.31;27.37;100054.31;4415078;32;19957;-54
2021/04/09 06:04:40;;;;;;;;;;;;;;;17.33;27.29;100047.31;4416424;32;20398;-54
2021/04/09 06:07:06;;;;;;;;;;;;;;;17.44;27.16;100038.75;4415314;32;19958;-53
2021/04/09 06:09:32;;;;;;;;;;;;;;;17.45;27.30;100035.25;4416446;32;19991;-54
2021/04/09 06:11:58;;;;;;;;;;;;;;;17.48;27.28;100035.34;4415831;32;20378;-56
2021/04/09 06:14:25;;;;;;;;;;;;;;;17.49;27.28;100026.56;4415639;32;19954;-54
2021/04/09 06:16:51;;;;;;;;;;;;;;;17.41;27.41;100032.56;4415159;32;19958;-53
2021/04/09 06:19:17;;;;;;;;;;;;;;;17.42;27.65;100031.72;4415527;32;20408;-56
2021/04/09 06:21:43;;;;;;;;;;;;;;;17.46;27.55;100031.75;4415870;32;19966;-51
2021/04/09 06:24:09;;;;;;;;;;;;;;;17.48;27.54;100036.22;4415528;32;20738;-56
2021/04/09 06:26:35;;;;;;;;;;;;;;;17.41;27.55;100029.94;4411955;32;19999;-53
2021/04/09 06:29:01;;;;;;;;;;;;;;;17.46;27.43;100032.66;4410185;32;19999;-56
2021/04/09 06:31:27;;;;;;;;;;;;;;;17.55;27.55;100026.69;4415030;32;19953;-54
2021/04/09 06:33:53;;;;;;;;;;;;;;;17.53;27.44;100024.03;4415949;32;20054;-50
2021/04/09 06:36:18;;;;;;;;;;;;;;;17.32;27.91;100035.00;4413926;32;19982;-55
2021/04/09 06:38:44;;;;;;;;;;;;;;;17.45;27.54;100019.47;4415381;32;19977;-50
2021/04/09 06:41:10;;;;;;;;;;;;;;;17.52;27.68;100018.72;4413916;32;20081;-52
2021/04/09 06:43:36;;;;;;;;;;;;;;;17.38;27.85;100022.00;4415880;32;20372;-53
2021/04/09 06:46:02;;;;;;;;;;;;;;;17.46;27.69;100013.34;4412886;32;19978;-51
2021/04/09 06:48:28;;;;;;;;;;;;;;;17.53;27.79;100017.88;4412423;32;20480;-52
2021/04/09 06:50:54;;;;;;;;;;;;;;;17.53;27.69;100020.50;4414633;32;19954;-49
2021/04/09 06:53:20;;;;;;;;;;;;;;;17.61;27.73;100008.38;4414196;32;19962;-51
2021/04/09 06:55:46;;;;;;;;;;;;;;;17.67;27.64;100003.19;4407931;32;20669;-52
2021/04/09 06:58:12;;;;;;;;;;;;;;;17.70;27.60;100005.00;4412710;32;20712;-53
2021/04/09 07:00:38;;;;;;;;;;;;;;;17.68;27.39;100004.09;4413175;32;19964;-52
2021/04/09 07:03:04;;;;;;;;;;;;;;;17.61;27.55;99999.56;4412991;32;19954;-52
2021/04/09 07:05:30;;;;;;;;;;;;;;;17.45;27.64;99998.41;4414092;32;19962;-54
2021/04/09 07:07:56;;;;;;;;;;;;;;;17.42;27.69;100005.38;4413260;32;19953;-53
2021/04/09 07:10:22;;;;;;;;;;;;;;;17.44;27.67;100002.78;4413860;32;20016;-53
2021/04/09 07:12:48;;;;;;;;;;;;;;;17.54;27.50;99999.47;4414385;32;20010;-50
2021/04/09 07:15:14;;;;;;;;;;;;;;;17.52;27.54;99995.03;4413619;32;19958;-53
2021/04/09 07:17:40;;;;;;;;;;;;;;;17.48;27.67;100003.75;4412755;32;19957;-53
2021/04/09 07:20:06;;;;;;;;;;;;;;;17.48;27.66;99993.22;4413412;32;19958;-52
2021/04/09 07:22:32;;;;;;;;;;;;;;;17.52;27.61;99989.75;4408386;32;20000;-49
2021/04/09 07:24:58;;;;;;;;;;;;;;;17.47;27.67;99986.16;4407848;32;20005;-52
2021/04/09 07:27:24;;;;;;;;;;;;;;;17.55;27.62;99984.56;4413406;32;19977;-49
2021/04/09 07:29:50;;;;;;;;;;;;;;;17.59;27.52;99974.97;4414287;32;19954;-52
2021/04/09 07:32:16;;;;;;;;;;;;;;;17.55;27.62;99989.81;4412817;32;19969;-50
2021/04/09 07:34:42;;;;;;;;;;;;;;;17.56;27.63;99986.31;4413772;32;19970;-51
2021/04/09 07:37:08;;;;;;;;;;;;;;;17.60;27.57;99982.00;4412219;32;19991;-50
2021/04/09 07:39:35;;;;;;;;;;;;;;;17.73;27.37;99983.97;4413477;32;20021;-53
2021/04/09 07:42:00;;;;;;;;;;;;;;;17.75;27.38;99986.66;4413516;32;19999;-54
2021/04/09 07:44:27;;;;;;;;;;;;;;;17.86;27.24;99986.81;4413922;32;19966;-50
2021/04/09 07:46:53;;;;;;;;;;;;;;;17.84;27.26;99985.06;4412201;32;20095;-51
2021/04/09 07:49:18;;;;;;;;;;;;;;;17.92;27.16;99974.62;4413596;32;19990;-51
2021/04/09 07:51:45;;;;;;;;;;;;;;;17.87;27.23;99985.97;4413239;32;19964;-52
2021/04/09 07:54:12;;;;;;;;;;;;;;;17.80;27.37;99982.34;4414124;32;19950;-52
2021/04/09 07:56:38;;;;;;;;;;;;;;;17.87;27.27;99975.41;4412889;32;20001;-53
2021/04/09 07:59:04;;;;;;;;;;;;;;;17.90;27.24;99981.62;4412024;32;20017;-54
2021/04/09 08:01:30;;;;;;;;;;;;;;;17.97;27.16;99980.00;4407571;32;20392;-54
2021/04/09 08:03:56;;;;;;;;;;;;;;;17.88;27.30;99983.38;4411845;32;20003;-53
2021/04/09 08:06:22;;;;;;;;;;;;;;;17.75;27.52;99977.00;4411611;32;19968;-54
2021/04/09 08:08:48;;;;;;;;;;;;;;;17.81;27.48;99973.56;4411891;32;19954;-49
2021/04/09 08:11:14;;;;;;;;;;;;;;;17.91;27.33;99967.59;4412208;32;19992;-51
2021/04/09 08:13:39;;;;;;;;;;;;;;;17.98;27.25;99968.59;4408827;32;20376;-53
2021/04/09 08:16:05;;;;;;;;;;;;;;;18.03;27.19;99968.69;4411943;32;20090;-53
2021/04/09 08:18:31;;;;;;;;;;;;;;;17.91;27.37;99967.59;4411976;32;19997;-53
2021/04/09 08:20:57;;;;;;;;;;;;;;;17.96;27.35;99971.22;4412059;32;20389;-51
2021/04/09 08:23:23;;;;;;;;;;;;;;;18.03;27.24;99966.97;4412296;32;20086;-52
2021/04/09 08:25:49;;;;;;;;;;;;;;;17.91;27.43;99959.69;4411900;32;19946;-52
2021/04/09 08:28:15;;;;;;;;;;;;;;;17.87;27.69;99951.72;4411766;32;19958;-53
2021/04/09 08:30:41;;;;;;;;;;;;;;;17.80;27.78;99942.84;4414569;32;19954;-53
2021/04/09 08:33:07;;;;;;;;;;;;;;;17.79;27.80;99948.97;4411869;32;19966;-51
2021/04/09 08:35:33;;;;;;;;;;;;;;;17.70;27.98;99950.56;4413543;32;20006;-48
2021/04/09 08:38:01;;;;;;;;;;;;;;;17.82;27.93;99952.53;4413636;32;19976;-53
2021/04/09 08:40:26;;;;;;;;;;;;;;;17.94;27.64;99957.09;4399334;32;20041;-53
2021/04/09 08:42:52;;;;;;;;;;;;;;;17.96;27.65;99954.50;4414795;32;19985;-53
2021/04/09 08:45:18;;;;;;;;;;;;;;;17.81;27.87;99957.78;4412989;32;19958;-53
2021/04/09 08:47:44;;;;;;;;;;;;;;;17.87;28.03;99960.53;4411646;32;20372;-51
2021/04/09 08:50:10;;;;;;;;;;;;;;;17.98;27.80;99958.03;4414144;32;19953;-50
2021/04/09 08:52:36;;;;;;;;;;;;;;;18.00;27.70;99958.94;4414552;32;19955;-53
2021/04/09 08:55:02;;;;;;;;;;;;;;;18.03;27.82;99958.16;4414435;32;20008;-50
2021/04/09 08:57:28;;;;;;;;;;;;;;;18.03;27.79;99955.53;4410746;32;20005;-51
2021/04/09 08:59:54;;;;;;;;;;;;;;;18.04;27.77;99952.00;4413866;32;20244;-50
2021/04/09 09:02:22;;;;;;;;;;;;;;;17.96;27.91;99950.13;4413451;32;19997;-54
2021/04/09 09:04:48;;;;;;;;;;;;;;;17.96;27.92;99939.59;4413163;32;19958;-51
2021/04/09 09:07:14;;;;;;;;;;;;;;;18.07;27.78;99942.41;4412084;32;19966;-51
2021/04/09 09:09:40;;;;;;;;;;;;;;;18.09;27.85;99937.19;4412755;32;19988;-50
2021/04/09 09:12:06;;;;;;;;;;;;;;;18.11;27.77;99923.13;4412126;32;20041;-50
2021/04/09 09:14:31;;;;;;;;;;;;;;;18.17;27.71;99922.34;4413673;32;19958;-53
2021/04/09 09:16:57;;;;;;;;;;;;;;;18.06;27.83;99924.84;4412130;32;20351;-52
2021/04/09 09:19:23;;;;;;;;;;;;;;;17.97;28.10;99928.19;4400070;32;19974;-52
2021/04/09 09:21:49;;;;;;;;;;;;;;;17.92;28.19;99915.81;4409164;32;20009;-50
2021/04/09 09:24:15;;;;;;;;;;;;;;;18.05;27.97;99917.81;4416282;32;20376;-54
2021/04/09 09:26:41;;;;;;;;;;;;;;;18.06;27.98;99916.03;4415374;32;19965;-53
2021/04/09 09:29:07;;;;;;;;;;;;;;;18.18;27.82;99910.94;4414893;32;19953;-53
2021/04/09 09:31:33;;;;;;;;;;;;;;;18.16;27.75;99914.44;4414901;32;19962;-53
2021/04/09 09:33:58;;;;;;;;;;;;;;;18.17;27.84;99913.56;4417168;32;19994;-49
2021/04/09 09:36:24;;;;;;;;;;;;;;;18.22;27.76;99910.13;4415279;32;19954;-51
2021/04/09 09:38:50;;;;;;;;;;;;;;;18.22;27.75;99910.13;4415461;32;20338;-48
2021/04/09 09:41:16;;;;;;;;;;;;;;;18.25;27.74;99907.53;4416525;32;20015;-50
2021/04/09 09:43:43;;;;;;;;;;;;;;;18.21;27.87;99894.28;4415559;32;20060;-52
2021/04/09 09:46:09;;;;;;;;;;;;;;;18.33;27.69;99897.09;4414824;32;20024;-52
2021/04/09 09:48:34;;;;;;;;;;;;;;;18.26;27.78;99890.84;4416067;32;20437;-51
2021/04/09 09:51:00;;;;;;;;;;;;;;;18.22;27.92;99896.06;4416365;32;20317;-52
2021/04/09 09:53:26;;;;;;;;;;;;;;;18.17;27.93;99896.00;4416527;32;19977;-48
2021/04/09 09:55:52;;;;;;;;;;;;;;;18.17;28.10;99896.00;4416912;32;20121;-51
2021/04/09 09:58:19;;;;;;;;;;;;;;;18.18;28.22;99881.94;4415175;32;20026;-56
2021/04/09 10:00:45;;;;;;;;;;;;;;;18.35;27.89;99882.16;4415447;32;19973;-51
2021/04/09 10:03:10;;;;;;;;;;;;;;;18.38;27.84;99883.97;4415922;32;19985;-51
2021/04/09 10:05:36;;;;;;;;;;;;;;;18.31;27.98;99880.38;4414912;32;19978;-54
2021/04/09 10:08:03;;;;;;;;;;;;;;;18.24;28.13;99871.50;4411154;32;19994;-51
2021/04/09 10:10:29;;;;;;;;;;;;;;;18.39;27.93;99867.28;4413127;32;19996;-54
2021/04/09 10:12:55;;;;;;;;;;;;;;;18.39;27.93;99869.94;4414945;32;19967;-53
2021/04/09 10:15:21;;;;;;;;;;;;;;;18.45;27.89;99861.22;4414298;32;20010;-51
2021/04/09 10:17:47;;;;;;;;;;;;;;;18.50;27.81;99860.41;4413373;32;20041;-54
2021/04/09 10:20:13;;;;;;;;;;;;;;;18.49;27.82;99855.09;4414516;32;19998;-52
2021/04/09 10:22:39;;;;;;;;;;;;;;;18.55;27.73;99852.53;4414376;32;20006;-52
2021/04/09 10:25:05;;;;;;;;;;;;;;;18.54;27.76;99850.78;4413839;32;20013;-50
2021/04/09 10:27:31;;;;;;;;;;;;;;;18.59;27.69;99851.69;4414073;32;19962;-52
2021/04/09 10:29:58;;;;;;;;;;;;;;;18.61;27.68;99854.38;4414344;32;19998;-50
2021/04/09 10:32:25;;;;;;;;;;;;;;;18.62;27.66;99835.03;4414723;32;19971;-53
2021/04/09 10:34:52;;;;;;;;;;;;;;;18.63;27.67;99836.81;4412056;32;19958;-49
2021/04/09 10:37:18;;;;;;;;;;;;;;;18.64;27.66;99833.28;4414127;32;20335;-51
2021/04/09 10:39:44;;;;;;;;;;;;;;;18.64;27.67;99835.94;4414809;32;19988;-53
2021/04/09 10:42:10;;;;;;;;;;;;;;;18.69;27.61;99831.59;4415291;32;19974;-49
2021/04/09 10:44:36;;;;;;;;;;;;;;;18.68;27.62;99835.09;4414515;32;19958;-51
2021/04/09 10:47:02;;;;;;;;;;;;;;;18.70;27.62;99827.19;4414526;32;20034;-53
2021/04/09 10:49:29;;;;;;;;;;;;;;;18.71;27.61;99828.97;4414379;32;19997;-53
2021/04/09 10:51:55;;;;;;;;;;;;;;;18.74;27.57;99826.34;4414925;32;20310;-52
2021/04/09 10:54:21;;;;;;;;;;;;;;;18.73;27.54;99822.84;4413126;32;20033;-52
2021/04/09 10:56:47;;;;;;;;;;;;;;;18.73;27.57;99812.31;4413191;32;20060;-49
2021/04/09 10:59:13;;;;;;;;;;;;;;;18.75;27.51;99814.94;4414296;32;19958;-50
2021/04/09 11:01:39;;;;;;;;;;;;;;;18.79;27.47;99816.75;4414052;32;19968;-52
2021/04/09 11:04:05;;;;;;;;;;;;;;;18.79;27.46;99807.06;4413934;32;19998;-49
2021/04/09 11:06:31;;;;;;;;;;;;;;;18.82;27.42;99804.47;4410826;32;19950;-50
2021/04/09 11:08:57;;;;;;;;;;;;;;;18.85;27.35;99798.34;4406238;32;19950;-52
2021/04/09 11:11:23;;;;;;;;;;;;;;;18.86;27.35;99796.59;4400369;32;20083;-51
2021/04/09 11:13:48;;;;;;;;;;;;;;;18.85;27.32;99789.56;4399297;32;19963;-53
2021/04/09 11:16:14;;;;;;;;;;;;;;;18.89;27.34;99788.69;4406090;32;19950;-54
2021/04/09 11:18:40;;;;;;;;;;;;;;;18.89;27.32;99784.31;4414973;32;19980;-53
2021/04/09 11:21:06;;;;;;;;;;;;;;;18.87;27.30;99771.97;4413300;32;20032;-52
2021/04/09 11:23:32;;;;;;;;;;;;;;;18.88;27.29;99771.97;4411179;32;20390;-50
2021/04/09 11:25:58;;;;;;;;;;;;;;;18.79;27.41;99775.41;4412042;32;19958;-53
2021/04/09 11:28:24;;;;;;;;;;;;;;;18.85;27.39;99758.75;4412368;32;19980;-53
2021/04/09 11:30:50;;;;;;;;;;;;;;;18.86;27.33;99760.53;4412906;32;20307;-54
2021/04/09 11:33:16;;;;;;;;;;;;;;;18.92;27.25;99754.41;4414844;32;20017;-53
2021/04/09 11:35:42;;;;;;;;;;;;;;;18.78;27.56;99746.41;4414521;32;19997;-51
2021/04/09 11:38:08;;;;;;;;;;;;;;;18.90;27.51;99746.50;4413004;32;19962;-50
2021/04/09 11:40:34;;;;;;;;;;;;;;;18.91;27.43;99742.09;4413757;32;19954;-52
2021/04/09 11:42:59;;;;;;;;;;;;;;;18.91;27.49;99752.66;4414440;32;19954;-53
2021/04/09 11:45:25;;;;;;;;;;;;;;;18.97;27.38;99742.16;4414270;32;19973;-51
2021/04/09 11:47:51;;;;;;;;;;;;;;;18.97;27.38;99742.16;4413576;32;19958;-52
2021/04/09 11:50:17;;;;;;;;;;;;;;;18.94;27.59;99735.09;4413832;32;20282;-51
2021/04/09 11:52:43;;;;;;;;;;;;;;;18.97;27.55;99739.53;4414746;32;19958;-53
2021/04/09 11:55:09;;;;;;;;;;;;;;;18.91;27.68;99736.81;4412680;32;20056;-49
2021/04/09 11:57:35;;;;;;;;;;;;;;;19.00;27.50;99736.03;4414351;32;20005;-49
2021/04/09 12:00:01;;;;;;;;;;;;;;;19.05;27.37;99729.94;4414303;32;20590;-52
2021/04/09 12:02:27;;;;;;;;;;;;;;;19.02;27.43;99729.06;4414064;32;19958;-47
2021/04/09 12:04:53;;;;;;;;;;;;;;;19.02;27.41;99724.63;4414562;32;19998;-51
2021/04/09 12:07:19;;;;;;;;;;;;;;;19.03;27.64;99731.69;4412310;32;20002;-51
2021/04/09 12:09:45;;;;;;;;;;;;;;;19.07;27.73;99727.31;4414028;32;20587;-52
2021/04/09 12:12:10;;;;;;;;;;;;;;;18.90;28.02;99727.16;4413046;32;20319;-52
2021/04/09 12:14:36;;;;;;;;;;;;;;;18.92;28.10;99723.66;4412672;32;19958;-53
2021/04/09 12:17:02;;;;;;;;;;;;;;;19.04;27.93;99725.53;4411833;32;20013;-53
2021/04/09 12:19:28;;;;;;;;;;;;;;;19.16;27.59;99722.12;4414587;32;20323;-53
2021/04/09 12:21:54;;;;;;;;;;;;;;;19.18;27.69;99714.19;4414454;32;20008;-50
2021/04/09 12:24:20;;;;;;;;;;;;;;;19.10;27.69;99712.41;4412317;32;20044;-52
2021/04/09 12:26:46;;;;;;;;;;;;;;;19.03;27.89;99712.34;4410519;32;19981;-49
2021/04/09 12:29:12;;;;;;;;;;;;;;;19.10;28.00;99709.75;4413182;32;19982;-51
2021/04/09 12:31:38;;;;;;;;;;;;;;;19.18;27.70;99703.63;4413270;32;19962;-53
2021/04/09 12:34:04;;;;;;;;;;;;;;;19.18;27.89;99701.88;4414467;32;19950;-51